Time;durP1;ratioP1;P1;durP2;ratioP2;P2;SDS_P1;SDS_P2;PMS_P1;PMS_P2;Temp;Humidity;BMP_temperature;BMP_pressure;BME280_temperature;BME280_humidity;BME280_pressure;Samples;Min_cycle;Max_cycle;Signal;HPM_P1;HPM_P2
2023/03/10 00:00:00;;;;;;;;;;;;;;;16.33;50.82;99882.84;4996365;28;1140;-46
2023/03/10 00:02:28;;;;;;;;;;;;;;;16.83;49.39;99874.22;4994307;28;1358;-46
2023/03/10 00:04:54;;;;;;;;;;;;;;;16.03;51.65;99889.50;4996416;28;1024;-43
2023/03/10 00:07:20;;;;;;;;;;;;;;;15.75;52.33;99878.25;4999878;28;1051;-46
2023/03/10 00:09:45;;;;;;;;;;;;;;;15.65;52.56;99886.56;5000464;28;1994;-46
2023/03/10 00:12:11;;;;;;;;;;;;;;;15.50;52.61;99888.38;5000799;28;1200;-45
2023/03/10 00:14:36;;;;;;;;;;;;;;;15.96;51.99;99900.81;5000248;28;1072;-45
2023/03/10 00:17:02;;;;;;;;;;;;;;;16.95;49.14;99893.00;4987397;28;1127;-47
2023/03/10 00:19:28;;;;;;;;;;;;;;;16.07;51.48;99893.28;5000013;28;1164;-43
2023/03/10 00:21:54;;;;;;;;;;;;;;;15.78;52.25;99887.81;4999597;28;1465;-45
2023/03/10 00:24:19;;;;;;;;;;;;;;;15.56;52.91;99886.38;4999521;28;1134;-44
2023/03/10 00:26:45;;;;;;;;;;;;;;;15.43;52.94;99890.63;4999835;28;1040;-42
2023/03/10 00:29:11;;;;;;;;;;;;;;;16.73;50.10;99886.16;4999736;28;1907;-46
2023/03/10 00:31:36;;;;;;;;;;;;;;;16.79;49.84;99897.03;4999674;28;1099;-44
2023/03/10 00:34:02;;;;;;;;;;;;;;;16.06;51.69;99900.72;5015354;28;1040;-43
2023/03/10 00:36:28;;;;;;;;;;;;;;;15.78;52.23;99901.50;5014431;28;1132;-43
2023/03/10 00:38:54;;;;;;;;;;;;;;;15.63;52.77;99903.31;4999979;28;1135;-44
2023/03/10 00:41:21;;;;;;;;;;;;;;;15.47;53.02;99901.81;4999872;28;1143;-44
2023/03/10 00:43:47;;;;;;;;;;;;;;;15.37;53.18;99905.44;4999331;28;1041;-44
2023/03/10 00:46:12;;;;;;;;;;;;;;;16.50;50.92;99908.97;4999192;28;1152;-44
2023/03/10 00:48:38;;;;;;;;;;;;;;;17.09;48.90;99899.38;5014651;28;1921;-45
2023/03/10 00:51:04;;;;;;;;;;;;;;;16.22;51.41;99914.25;5015088;28;1067;-45
2023/03/10 00:53:29;;;;;;;;;;;;;;;15.84;52.43;99909.44;4999195;28;1045;-42
2023/03/10 00:55:59;;;;;;;;;;;;;;;15.65;52.81;99908.50;5014120;28;1243;-43
2023/03/10 00:58:24;;;;;;;;;;;;;;;15.53;52.94;99923.41;4999628;28;1142;-42
2023/03/10 01:00:50;;;;;;;;;;;;;;;15.39;53.26;99936.13;5014128;28;1100;-41
2023/03/10 01:03:15;;;;;;;;;;;;;;;15.38;53.38;99934.47;4999363;28;1156;-45
2023/03/10 01:05:41;;;;;;;;;;;;;;;16.96;49.89;99926.75;5014260;28;1355;-43
2023/03/10 01:08:07;;;;;;;;;;;;;;;16.69;50.07;99929.03;4998879;28;1973;-43
2023/03/10 01:10:32;;;;;;;;;;;;;;;16.02;51.73;99931.72;4999416;28;1248;-42
2023/03/10 01:12:58;;;;;;;;;;;;;;;15.79;52.51;99928.66;4999369;28;1143;-44
2023/03/10 01:15:25;;;;;;;;;;;;;;;15.57;52.96;99931.84;4998888;28;1057;-42
2023/03/10 01:17:50;;;;;;;;;;;;;;;15.48;53.01;99939.06;5013741;28;1047;-45
2023/03/10 01:20:17;;;;;;;;;;;;;;;15.35;53.01;99935.88;4998810;28;1132;-42
2023/03/10 01:22:43;;;;;;;;;;;;;;;16.28;51.57;99929.53;4998566;28;1661;-43
2023/03/10 01:25:11;;;;;;;;;;;;;;;17.07;49.19;99920.84;4998780;28;1010;-44
2023/03/10 01:27:37;;;;;;;;;;;;;;;16.15;51.69;99913.78;4996938;28;1918;-44
2023/03/10 01:30:04;;;;;;;;;;;;;;;15.78;52.54;99904.25;4985875;28;927;-41
2023/03/10 01:32:30;;;;;;;;;;;;;;;15.53;52.91;99906.16;4998742;28;871;-44
2023/03/10 01:34:55;;;;;;;;;;;;;;;15.46;52.89;99903.75;4985959;28;981;-43
2023/03/10 01:37:21;;;;;;;;;;;;;;;15.36;53.25;99904.63;4998401;28;1068;-45
2023/03/10 01:39:46;;;;;;;;;;;;;;;15.25;53.25;99907.72;4998887;28;1111;-47
2023/03/10 01:42:12;;;;;;;;;;;;;;;16.32;51.52;99914.13;4998786;28;1184;-41
2023/03/10 01:44:38;;;;;;;;;;;;;;;17.30;48.61;99904.53;4972704;28;1253;-44
2023/03/10 01:47:04;;;;;;;;;;;;;;;16.22;51.59;99919.72;4979103;28;1276;-45
2023/03/10 01:49:36;;;;;;;;;;;;;;;15.80;52.64;99921.28;4997753;28;1910;-43
2023/03/10 01:52:07;;;;;;;;;;;;;;;15.59;52.80;99934.31;4979030;28;1134;-46
2023/03/10 01:54:56;;;;;;;;;;;;;;;15.57;53.16;99932.69;4994055;28;1269;-44
2023/03/10 01:57:23;;;;;;;;;;;;;;;16.95;49.63;99939.69;4968210;28;1194;-43
2023/03/10 01:59:50;;;;;;;;;;;;;;;16.01;51.74;99936.41;5009786;28;1104;-47
2023/03/10 02:02:16;;;;;;;;;;;;;;;15.73;52.64;99944.31;5009882;28;1166;-44
2023/03/10 02:04:43;;;;;;;;;;;;;;;15.57;52.77;99948.28;5010386;28;1122;-45
2023/03/10 02:07:09;;;;;;;;;;;;;;;15.47;52.95;99949.19;4977814;28;1045;-45
2023/03/10 02:09:36;;;;;;;;;;;;;;;16.67;50.56;99949.66;4977460;28;1977;-46
2023/03/10 02:12:02;;;;;;;;;;;;;;;16.78;49.98;99948.41;4993836;28;1095;-43
2023/03/10 02:14:28;;;;;;;;;;;;;;;16.02;52.12;99951.75;4978596;28;1168;-43
2023/03/10 02:16:53;;;;;;;;;;;;;;;15.74;52.69;99958.84;5009992;28;1096;-45
2023/03/10 02:19:26;;;;;;;;;;;;;;;15.59;53.00;99959.78;4978131;28;1018;-44
2023/03/10 02:21:55;;;;;;;;;;;;;;;15.49;52.84;99959.88;4977568;28;1122;-46
2023/03/10 02:24:26;;;;;;;;;;;;;;;15.34;53.47;99949.84;5009553;28;1128;-42
2023/03/10 02:26:56;;;;;;;;;;;;;;;16.61;50.76;99948.91;4997700;28;986;-45
2023/03/10 02:29:32;;;;;;;;;;;;;;;16.93;49.54;99956.47;5008380;28;1981;-44
2023/03/10 02:31:58;;;;;;;;;;;;;;;16.02;51.86;99953.66;4993010;28;1190;-46
2023/03/10 02:34:24;;;;;;;;;;;;;;;15.74;52.81;99964.34;4978882;28;1064;-46
2023/03/10 02:36:49;;;;;;;;;;;;;;;15.58;52.83;99963.63;5009406;28;1064;-43
2023/03/10 02:39:15;;;;;;;;;;;;;;;15.50;53.19;99964.25;4977732;28;1121;-44
2023/03/10 02:41:40;;;;;;;;;;;;;;;15.36;53.24;99969.56;4977958;28;1431;-48
2023/03/10 02:44:12;;;;;;;;;;;;;;;16.89;50.06;99976.59;4991936;28;1262;-46
2023/03/10 02:46:37;;;;;;;;;;;;;;;16.51;50.87;99970.97;4992715;28;1115;-43
2023/03/10 02:49:05;;;;;;;;;;;;;;;15.92;52.04;99971.03;5009025;28;1909;-46
2023/03/10 02:51:38;;;;;;;;;;;;;;;15.67;52.77;99980.28;5009251;28;1288;-46
2023/03/10 02:54:07;;;;;;;;;;;;;;;15.52;53.13;99973.00;5009236;28;1331;-45
2023/03/10 02:56:33;;;;;;;;;;;;;;;15.40;53.20;99971.44;5009238;28;1333;-47
2023/03/10 02:58:59;;;;;;;;;;;;;;;16.59;50.52;99967.56;4977483;28;1132;-41
2023/03/10 03:01:29;;;;;;;;;;;;;;;16.70;49.98;99963.59;4976267;28;1152;-47
2023/03/10 03:03:55;;;;;;;;;;;;;;;15.95;52.14;99975.97;5009081;28;1124;-43
2023/03/10 03:06:21;;;;;;;;;;;;;;;15.74;52.70;99970.63;5008990;28;1308;-42
2023/03/10 03:08:47;;;;;;;;;;;;;;;15.52;52.77;99973.81;4977466;28;1914;-41
2023/03/10 03:11:15;;;;;;;;;;;;;;;15.42;53.24;99979.38;5008902;28;1383;-45
2023/03/10 03:13:41;;;;;;;;;;;;;;;15.74;52.55;99967.06;5008520;28;2255;-44
2023/03/10 03:16:07;;;;;;;;;;;;;;;17.23;48.81;99973.59;5009099;28;1235;-43
2023/03/10 03:18:33;;;;;;;;;;;;;;;16.40;50.82;99981.25;5008902;28;1227;-44
2023/03/10 03:21:02;;;;;;;;;;;;;;;15.91;52.08;99986.69;4976822;28;1041;-43
2023/03/10 03:23:27;;;;;;;;;;;;;;;15.67;52.65;99997.56;4977538;28;1164;-43
2023/03/10 03:25:53;;;;;;;;;;;;;;;15.54;52.89;99992.72;4977911;28;1053;-45
2023/03/10 03:28:20;;;;;;;;;;;;;;;15.42;53.03;99984.03;5008505;28;1914;-44
2023/03/10 03:30:48;;;;;;;;;;;;;;;16.67;50.75;99991.63;5008529;28;1342;-42
2023/03/10 03:33:14;;;;;;;;;;;;;;;16.81;49.91;99983.50;4977259;28;1272;-44
2023/03/10 03:35:41;;;;;;;;;;;;;;;16.10;51.96;99983.19;5008455;28;1148;-42
2023/03/10 03:38:07;;;;;;;;;;;;;;;15.78;52.38;99994.72;4977469;28;985;-46
2023/03/10 03:40:34;;;;;;;;;;;;;;;15.57;52.86;99998.44;5008569;28;1299;-43
2023/03/10 03:43:02;;;;;;;;;;;;;;;15.47;53.25;100003.97;4995558;28;1131;-44
2023/03/10 03:45:28;;;;;;;;;;;;;;;15.33;53.16;100009.31;5008463;28;1397;-41
2023/03/10 03:47:55;;;;;;;;;;;;;;;16.84;49.92;100002.13;5008554;28;1977;-42
2023/03/10 03:50:22;;;;;;;;;;;;;;;16.43;50.92;100006.16;5008363;28;1086;-42
2023/03/10 03:52:50;;;;;;;;;;;;;;;15.89;52.40;100020.97;5008329;28;1383;-43
2023/03/10 03:55:19;;;;;;;;;;;;;;;15.66;52.83;100015.09;5008518;28;1285;-40
2023/03/10 03:57:47;;;;;;;;;;;;;;;15.46;53.09;100021.53;5007978;28;1119;-41
2023/03/10 04:00:15;;;;;;;;;;;;;;;15.37;53.13;100012.28;4992048;28;1310;-43
2023/03/10 04:02:44;;;;;;;;;;;;;;;16.96;49.88;100007.22;5008112;28;1271;-42
2023/03/10 04:05:10;;;;;;;;;;;;;;;16.30;51.23;99993.16;5008203;28;1100;-46
2023/03/10 04:07:37;;;;;;;;;;;;;;;15.84;52.38;99997.16;5008473;28;1194;-44
2023/03/10 04:10:03;;;;;;;;;;;;;;;15.61;53.00;99997.88;5007916;28;1911;-45
2023/03/10 04:12:28;;;;;;;;;;;;;;;15.49;52.97;100006.47;5007927;28;1150;-42
2023/03/10 04:14:55;;;;;;;;;;;;;;;15.32;53.41;100004.09;5008379;28;1135;-43
2023/03/10 04:17:21;;;;;;;;;;;;;;;15.27;53.39;100015.09;4977089;28;1275;-49
2023/03/10 04:19:47;;;;;;;;;;;;;;;16.80;50.34;100011.25;5008047;28;1139;-50
2023/03/10 04:22:16;;;;;;;;;;;;;;;16.52;50.69;100011.03;5007534;28;1265;-50
2023/03/10 04:24:43;;;;;;;;;;;;;;;15.88;52.27;100016.59;5007937;28;1321;-53
2023/03/10 04:27:10;;;;;;;;;;;;;;;15.64;52.65;100011.84;4976710;28;1076;-52
2023/03/10 04:29:36;;;;;;;;;;;;;;;15.47;53.25;99997.69;5007934;28;1986;-45
2023/03/10 04:32:03;;;;;;;;;;;;;;;16.39;51.17;99996.88;5007616;28;2310;-49
2023/03/10 04:34:29;;;;;;;;;;;;;;;16.69;50.25;100000.41;5007571;28;1126;-46
2023/03/10 04:36:54;;;;;;;;;;;;;;;15.96;52.13;99995.97;4976650;28;1140;-45
2023/03/10 04:39:20;;;;;;;;;;;;;;;15.77;52.45;99991.16;5008196;28;1190;-46
2023/03/10 04:41:46;;;;;;;;;;;;;;;15.55;53.03;99983.41;5007814;28;1322;-48
2023/03/10 04:44:11;;;;;;;;;;;;;;;15.41;53.12;99988.69;5007755;28;1148;-50
2023/03/10 04:46:39;;;;;;;;;;;;;;;15.32;53.46;99980.28;5011327;28;1159;-46
2023/03/10 04:49:07;;;;;;;;;;;;;;;15.49;53.23;99984.53;5010373;28;1973;-47
2023/03/10 04:51:33;;;;;;;;;;;;;;;17.02;49.78;99967.59;5012166;28;1115;-48
2023/03/10 04:53:59;;;;;;;;;;;;;;;16.41;51.02;99969.16;5015140;28;1548;-48
2023/03/10 04:56:28;;;;;;;;;;;;;;;15.89;52.40;99971.63;5014150;28;1620;-48
2023/03/10 04:58:54;;;;;;;;;;;;;;;15.56;52.99;99976.81;4982192;28;1148;-49
2023/03/10 05:01:21;;;;;;;;;;;;;;;15.47;53.24;99984.00;4982151;28;1273;-48
2023/03/10 05:03:51;;;;;;;;;;;;;;;16.55;50.87;99983.00;5013944;28;2025;-48
2023/03/10 05:06:18;;;;;;;;;;;;;;;17.13;49.08;99978.44;5014763;28;1195;-46
2023/03/10 05:08:48;;;;;;;;;;;;;;;16.15;51.77;99976.88;4981575;28;1976;-45
2023/03/10 05:11:16;;;;;;;;;;;;;;;15.81;52.64;99983.19;4981512;28;1144;-47
2023/03/10 05:13:42;;;;;;;;;;;;;;;15.61;53.07;99984.16;5014344;28;1242;-46
2023/03/10 05:16:12;;;;;;;;;;;;;;;15.52;53.12;99984.78;5014566;28;1113;-48
2023/03/10 05:18:37;;;;;;;;;;;;;;;15.40;53.27;99996.09;5013958;28;1305;-47
2023/03/10 05:21:03;;;;;;;;;;;;;;;15.28;53.53;99994.78;5014062;28;1284;-46
2023/03/10 05:23:29;;;;;;;;;;;;;;;16.50;51.07;99996.78;5013782;28;1468;-48
2023/03/10 05:25:54;;;;;;;;;;;;;;;17.25;48.90;100000.78;5013800;28;1151;-46
2023/03/10 05:28:22;;;;;;;;;;;;;;;16.18;51.51;100012.75;5013710;28;1902;-47
2023/03/10 05:30:49;;;;;;;;;;;;;;;15.81;52.55;100019.66;5014269;28;1359;-48
2023/03/10 05:33:15;;;;;;;;;;;;;;;15.66;52.98;100011.53;4997180;28;1278;-43
2023/03/10 05:35:41;;;;;;;;;;;;;;;15.52;53.24;100016.84;4981185;28;1251;-47
2023/03/10 05:38:07;;;;;;;;;;;;;;;15.35;53.53;100023.53;4996707;28;1176;-48
2023/03/10 05:40:33;;;;;;;;;;;;;;;15.30;53.56;100033.69;4981045;28;1151;-49
2023/03/10 05:42:58;;;;;;;;;;;;;;;16.49;51.07;100030.81;4998554;28;1131;-46
2023/03/10 05:45:24;;;;;;;;;;;;;;;16.76;50.18;100039.31;4996327;28;1228;-50
2023/03/10 05:47:50;;;;;;;;;;;;;;;15.99;52.06;100048.31;4997499;28;1981;-48
2023/03/10 05:50:18;;;;;;;;;;;;;;;15.67;53.08;100057.00;5013630;28;1369;-47
2023/03/10 05:52:44;;;;;;;;;;;;;;;15.53;53.23;100056.84;4998953;28;1168;-48
2023/03/10 05:55:11;;;;;;;;;;;;;;;15.37;53.45;100054.19;5001327;28;1139;-47
2023/03/10 05:57:36;;;;;;;;;;;;;;;15.84;52.72;100051.19;5004337;28;1072;-47
2023/03/10 06:00:03;;;;;;;;;;;;;;;17.28;48.95;100060.66;5011178;28;1148;-45
2023/03/10 06:02:38;;;;;;;;;;;;;;;16.27;51.52;100054.09;4984919;28;1026;-44
2023/03/10 06:05:04;;;;;;;;;;;;;;;15.89;52.33;100054.69;4997611;28;1235;-49
2023/03/10 06:07:30;;;;;;;;;;;;;;;15.66;52.87;100063.63;4998234;28;1151;-44
2023/03/10 06:09:56;;;;;;;;;;;;;;;15.56;53.23;100067.25;4997497;28;1914;-45
2023/03/10 06:12:21;;;;;;;;;;;;;;;15.48;53.35;100065.91;4998072;28;1207;-44
2023/03/10 06:14:47;;;;;;;;;;;;;;;16.79;50.22;100072.75;4998286;28;1076;-49
2023/03/10 06:17:12;;;;;;;;;;;;;;;15.70;51.56;100073.72;4998128;28;997;-48
2023/03/10 06:19:38;;;;;;;;;;;;;;;15.70;52.46;100078.38;4997967;28;1121;-43
2023/03/10 06:22:03;;;;;;;;;;;;;;;15.88;52.03;100075.00;4997875;28;1145;-47
2023/03/10 06:24:29;;;;;;;;;;;;;;;15.71;51.44;100077.25;4997970;28;1048;-43
2023/03/10 06:26:55;;;;;;;;;;;;;;;17.35;49.27;100077.59;4997665;28;1154;-46
2023/03/10 06:29:20;;;;;;;;;;;;;;;16.23;50.94;100075.00;4997606;28;1906;-47
2023/03/10 06:31:46;;;;;;;;;;;;;;;17.63;48.88;100066.75;4997728;28;1109;-49
2023/03/10 06:34:11;;;;;;;;;;;;;;;17.30;49.49;100066.66;4997266;28;1127;-46
2023/03/10 06:36:39;;;;;;;;;;;;;;;16.49;49.90;100072.00;4996951;28;1080;-48
2023/03/10 06:39:05;;;;;;;;;;;;;;;16.13;49.32;100066.84;4997506;28;1251;-45
2023/03/10 06:41:30;;;;;;;;;;;;;;;17.73;49.00;100068.53;4997747;28;1224;-47
2023/03/10 06:43:56;;;;;;;;;;;;;;;16.76;50.07;100071.44;4996422;28;1075;-42
2023/03/10 06:46:21;;;;;;;;;;;;;;;16.24;49.69;100060.97;4996559;28;1003;-44
2023/03/10 06:48:48;;;;;;;;;;;;;;;17.02;50.53;100069.22;4997419;28;1911;-43
2023/03/10 06:51:14;;;;;;;;;;;;;;;16.70;50.47;100070.66;4997364;28;1404;-45
2023/03/10 06:53:40;;;;;;;;;;;;;;;16.18;49.91;100069.53;4997158;28;1168;-48
2023/03/10 06:56:15;;;;;;;;;;;;;;;17.48;49.54;100062.28;4996654;28;1211;-44
2023/03/10 06:58:41;;;;;;;;;;;;;;;16.60;50.25;100074.31;4996121;28;905;-43
2023/03/10 07:01:07;;;;;;;;;;;;;;;16.96;50.61;100077.81;4996572;28;1079;-48
2023/03/10 07:03:33;;;;;;;;;;;;;;;17.16;49.80;100077.56;4997348;28;1076;-46
2023/03/10 07:05:58;;;;;;;;;;;;;;;16.56;49.87;100083.44;4997494;28;1188;-44
2023/03/10 07:08:25;;;;;;;;;;;;;;;17.46;50.03;100075.53;4997263;28;1907;-45
2023/03/10 07:10:50;;;;;;;;;;;;;;;16.77;49.95;100065.66;4997100;28;1120;-43
2023/03/10 07:13:16;;;;;;;;;;;;;;;16.40;49.12;100069.06;4996538;28;1096;-47
2023/03/10 07:15:42;;;;;;;;;;;;;;;16.32;48.15;100072.44;4996900;28;1318;-45
2023/03/10 07:18:07;;;;;;;;;;;;;;;17.54;49.46;100074.03;4996489;28;1519;-42
2023/03/10 07:20:33;;;;;;;;;;;;;;;16.65;50.28;100067.97;4996743;28;1044;-45
2023/03/10 07:22:59;;;;;;;;;;;;;;;16.41;49.17;100078.91;4996472;28;1084;-44
2023/03/10 07:25:24;;;;;;;;;;;;;;;16.25;48.94;100075.50;4996977;28;1080;-41
2023/03/10 07:27:50;;;;;;;;;;;;;;;17.09;49.63;100068.88;5012164;28;1914;-43
2023/03/10 07:30:16;;;;;;;;;;;;;;;16.54;49.38;100075.50;4997492;28;1271;-44
2023/03/10 07:32:41;;;;;;;;;;;;;;;16.30;48.79;100067.25;4996102;28;1115;-42
2023/03/10 07:35:07;;;;;;;;;;;;;;;16.70;49.41;100072.59;4996616;28;1096;-46
2023/03/10 07:37:35;;;;;;;;;;;;;;;16.80;49.78;100066.97;4996770;28;1056;-41
2023/03/10 07:40:01;;;;;;;;;;;;;;;16.43;49.31;100068.47;4996831;28;1215;-44
2023/03/10 07:42:26;;;;;;;;;;;;;;;17.74;48.62;100057.22;4996814;28;1123;-44
2023/03/10 07:44:52;;;;;;;;;;;;;;;16.72;49.90;100065.69;4996577;28;1168;-46
2023/03/10 07:47:18;;;;;;;;;;;;;;;16.80;49.83;100066.16;4996224;28;944;-45
2023/03/10 07:49:45;;;;;;;;;;;;;;;17.31;49.36;100073.81;4996248;28;1910;-45
2023/03/10 07:52:12;;;;;;;;;;;;;;;16.73;49.10;100067.34;4996768;28;1041;-42
2023/03/10 07:54:37;;;;;;;;;;;;;;;17.94;48.60;100067.13;4996574;28;1172;-43
2023/03/10 07:57:03;;;;;;;;;;;;;;;17.09;49.67;100075.16;4995858;28;1112;-45
2023/03/10 07:59:28;;;;;;;;;;;;;;;16.77;48.65;100070.31;4996022;28;1009;-43
2023/03/10 08:01:54;;;;;;;;;;;;;;;17.63;49.15;100072.25;4996541;28;1080;-45
2023/03/10 08:04:20;;;;;;;;;;;;;;;16.93;49.03;100074.53;4996425;28;1303;-43
2023/03/10 08:06:46;;;;;;;;;;;;;;;16.68;48.53;100074.81;4996554;28;1192;-40
2023/03/10 08:09:11;;;;;;;;;;;;;;;17.27;49.49;100070.00;4995951;28;1981;-42
2023/03/10 08:11:37;;;;;;;;;;;;;;;16.92;49.47;100075.66;4995879;28;1096;-41
2023/03/10 08:14:03;;;;;;;;;;;;;;;17.21;49.62;100065.72;4996536;28;1100;-40
2023/03/10 08:16:28;;;;;;;;;;;;;;;18.11;48.33;100072.06;4996469;28;1084;-42
2023/03/10 08:18:54;;;;;;;;;;;;;;;17.13;49.41;100077.34;4996342;28;1100;-41
2023/03/10 08:21:19;;;;;;;;;;;;;;;16.82;48.52;100073.00;4996514;28;1073;-41
2023/03/10 08:23:45;;;;;;;;;;;;;;;17.53;49.06;100080.63;4996373;28;898;-41
2023/03/10 08:26:14;;;;;;;;;;;;;;;17.50;49.23;100079.31;4996332;28;1060;-43
2023/03/10 08:28:40;;;;;;;;;;;;;;;17.13;49.82;100082.84;4999837;28;1910;-43
2023/03/10 08:31:12;;;;;;;;;;;;;;;18.86;46.88;100074.00;4999782;28;1081;-46
2023/03/10 08:33:38;;;;;;;;;;;;;;;17.42;49.08;100064.28;4999644;28;1144;-42
2023/03/10 08:36:05;;;;;;;;;;;;;;;17.17;48.36;100072.91;4999749;28;889;-40
2023/03/10 08:38:30;;;;;;;;;;;;;;;17.03;48.55;100068.13;4999464;28;1056;-43
2023/03/10 08:40:56;;;;;;;;;;;;;;;17.71;49.26;100073.50;5000176;28;1180;-45
2023/03/10 08:43:21;;;;;;;;;;;;;;;17.08;48.95;100075.47;5000115;28;1065;-46
2023/03/10 08:45:47;;;;;;;;;;;;;;;17.08;48.98;100078.22;4999747;28;1248;-44
2023/03/10 08:48:12;;;;;;;;;;;;;;;17.30;49.25;100069.41;4999223;28;1973;-44
2023/03/10 08:50:38;;;;;;;;;;;;;;;17.01;48.37;100077.75;4999612;28;1156;-47
2023/03/10 08:53:03;;;;;;;;;;;;;;;18.00;48.43;100070.59;4999384;28;1064;-42
2023/03/10 08:55:29;;;;;;;;;;;;;;;17.23;48.94;100068.97;4999354;28;1060;-45
2023/03/10 08:57:55;;;;;;;;;;;;;;;16.90;48.39;100058.66;5014469;28;1297;-49
2023/03/10 09:00:21;;;;;;;;;;;;;;;16.72;47.65;100051.97;4999337;28;909;-46
2023/03/10 09:02:46;;;;;;;;;;;;;;;16.62;47.38;100054.00;4999283;28;1279;-47
2023/03/10 09:05:12;;;;;;;;;;;;;;;16.50;46.84;100051.69;4999986;28;1192;-47
2023/03/10 09:07:37;;;;;;;;;;;;;;;17.64;48.50;100048.31;4999162;28;1116;-46
2023/03/10 09:10:04;;;;;;;;;;;;;;;16.87;48.56;100050.16;4999408;28;1967;-43
2023/03/10 09:12:29;;;;;;;;;;;;;;;16.72;47.94;100041.00;4998724;28;1154;-45
2023/03/10 09:14:55;;;;;;;;;;;;;;;17.28;48.73;100034.00;4999371;28;1064;-44
2023/03/10 09:17:20;;;;;;;;;;;;;;;16.81;48.54;100041.16;4999015;28;1145;-45
2023/03/10 09:19:46;;;;;;;;;;;;;;;16.63;47.99;100039.19;4999005;28;1096;-40
2023/03/10 09:22:12;;;;;;;;;;;;;;;17.43;48.18;100043.97;4999319;28;1089;-45
2023/03/10 09:24:37;;;;;;;;;;;;;;;17.03;48.60;100039.84;5014003;28;1006;-44
2023/03/10 09:27:03;;;;;;;;;;;;;;;16.69;48.17;100047.06;4998877;28;1325;-43
2023/03/10 09:29:31;;;;;;;;;;;;;;;16.98;48.04;100040.69;4998735;28;2001;-41
2023/03/10 09:31:56;;;;;;;;;;;;;;;17.18;48.36;100038.81;4998706;28;1067;-51
2023/03/10 09:34:23;;;;;;;;;;;;;;;16.71;48.37;100033.84;4999067;28;1235;-50
2023/03/10 09:36:48;;;;;;;;;;;;;;;17.35;48.22;100033.63;4998386;28;981;-47
2023/03/10 09:39:14;;;;;;;;;;;;;;;17.16;48.55;100030.06;4998611;28;1141;-48
2023/03/10 09:41:43;;;;;;;;;;;;;;;16.79;48.34;100026.09;4998705;28;1131;-50
2023/03/10 09:44:21;;;;;;;;;;;;;;;17.76;48.00;100027.50;4998371;28;1211;-50
2023/03/10 09:46:56;;;;;;;;;;;;;;;16.95;48.42;100022.06;4998344;28;1196;-46
2023/03/10 09:49:37;;;;;;;;;;;;;;;16.86;47.59;100015.59;4998790;28;1907;-49
2023/03/10 09:52:15;;;;;;;;;;;;;;;16.81;47.75;100007.41;5000599;28;1160;-46
2023/03/10 09:54:51;;;;;;;;;;;;;;;17.11;48.12;99997.97;4998303;28;1060;-47
2023/03/10 09:57:18;;;;;;;;;;;;;;;16.79;47.56;100009.59;4999001;28;1005;-46
2023/03/10 09:59:44;;;;;;;;;;;;;;;17.76;47.77;100005.50;5013353;28;1473;-46
2023/03/10 10:02:18;;;;;;;;;;;;;;;16.98;48.67;99996.75;4998717;28;1049;-45
2023/03/10 10:04:43;;;;;;;;;;;;;;;16.77;47.82;100001.66;5000984;28;1057;-44
2023/03/10 10:07:16;;;;;;;;;;;;;;;16.68;47.11;100007.00;4997575;28;1013;-48
2023/03/10 10:10:00;;;;;;;;;;;;;;;17.68;47.64;100003.41;5013081;28;1909;-44
2023/03/10 10:12:26;;;;;;;;;;;;;;;16.94;48.05;100006.69;4997745;28;1071;-46
2023/03/10 10:14:55;;;;;;;;;;;;;;;18.55;46.73;99995.59;4998553;28;1238;-50
2023/03/10 10:17:24;;;;;;;;;;;;;;;17.50;48.47;99985.03;5013141;28;1218;-50
2023/03/10 10:19:50;;;;;;;;;;;;;;;17.10;48.38;99977.91;4998561;28;1247;-50
2023/03/10 10:22:20;;;;;;;;;;;;;;;16.85;47.79;99981.81;5012838;28;1227;-53
2023/03/10 10:25:01;;;;;;;;;;;;;;;16.80;47.07;99967.31;5012758;28;1036;-50
2023/03/10 10:27:29;;;;;;;;;;;;;;;17.30;47.78;99964.19;4997861;28;1263;-49
2023/03/10 10:29:54;;;;;;;;;;;;;;;17.22;48.31;99962.91;4997744;28;1887;-49
2023/03/10 10:32:20;;;;;;;;;;;;;;;16.91;47.74;99963.34;4997565;28;1040;-49
2023/03/10 10:34:46;;;;;;;;;;;;;;;17.87;47.80;99962.16;4997849;28;1129;-52
2023/03/10 10:37:30;;;;;;;;;;;;;;;17.07;48.62;99958.47;4997031;28;1116;-45
2023/03/10 10:39:57;;;;;;;;;;;;;;;16.76;48.19;99951.44;4997631;28;1228;-52
2023/03/10 10:42:25;;;;;;;;;;;;;;;17.73;47.97;99962.09;4997551;28;1342;-49
2023/03/10 10:44:58;;;;;;;;;;;;;;;17.03;48.24;99955.50;4996711;28;1195;-46
2023/03/10 10:47:24;;;;;;;;;;;;;;;16.86;47.52;99942.25;4997786;28;1158;-45
2023/03/10 10:49:49;;;;;;;;;;;;;;;16.79;47.08;99938.22;4996760;28;1902;-50
2023/03/10 10:52:22;;;;;;;;;;;;;;;17.44;48.09;99940.31;5012680;28;1092;-51
2023/03/10 10:54:55;;;;;;;;;;;;;;;16.91;47.95;99924.91;4996654;28;1200;-50
2023/03/10 10:57:21;;;;;;;;;;;;;;;16.73;47.35;99907.28;5011794;28;1056;-48
2023/03/10 10:59:46;;;;;;;;;;;;;;;17.91;46.92;99918.41;4997190;28;1194;-44
2023/03/10 11:02:22;;;;;;;;;;;;;;;17.01;48.36;99919.28;4997077;28;1112;-49
2023/03/10 11:04:48;;;;;;;;;;;;;;;16.74;47.57;99920.72;4996963;28;1083;-44
2023/03/10 11:07:18;;;;;;;;;;;;;;;17.56;47.69;99917.88;4996545;28;1163;-45
2023/03/10 11:09:44;;;;;;;;;;;;;;;17.02;47.91;99920.91;4997331;28;1970;-48
2023/03/10 11:12:21;;;;;;;;;;;;;;;17.24;47.99;99912.06;4997059;28;1180;-47
2023/03/10 11:15:00;;;;;;;;;;;;;;;17.25;48.06;99908.19;5011862;28;1104;-50
2023/03/10 11:17:34;;;;;;;;;;;;;;;16.92;47.47;99897.16;5011986;28;1147;-50
2023/03/10 11:20:07;;;;;;;;;;;;;;;16.74;47.09;99893.25;4996745;28;1236;-49
2023/03/10 11:22:51;;;;;;;;;;;;;;;17.54;47.78;99882.41;5011946;28;1116;-50
2023/03/10 11:25:17;;;;;;;;;;;;;;;16.86;48.11;99878.28;4996730;28;959;-52
2023/03/10 11:27:43;;;;;;;;;;;;;;;16.86;47.90;99864.56;4996590;28;1060;-50
2023/03/10 11:30:11;;;;;;;;;;;;;;;17.24;48.07;99872.78;4997173;28;1981;-48
2023/03/10 11:32:52;;;;;;;;;;;;;;;16.82;47.85;99877.25;4996921;28;1092;-47
2023/03/10 11:35:33;;;;;;;;;;;;;;;16.67;47.08;99872.78;5012036;28;1235;-49
2023/03/10 11:38:02;;;;;;;;;;;;;;;17.09;47.41;99877.38;4990786;28;1056;-49
2023/03/10 11:40:30;;;;;;;;;;;;;;;17.05;48.01;99870.84;5011807;28;1353;-48
2023/03/10 11:42:59;;;;;;;;;;;;;;;16.72;47.58;99873.53;4996578;28;1136;-50
2023/03/10 11:45:35;;;;;;;;;;;;;;;17.66;47.32;99876.44;4996762;28;1179;-49
2023/03/10 11:48:01;;;;;;;;;;;;;;;16.97;48.03;99874.31;4999274;28;1918;-48
2023/03/10 11:50:35;;;;;;;;;;;;;;;16.66;47.68;99863.75;4996233;28;1137;-49
2023/03/10 11:53:02;;;;;;;;;;;;;;;16.80;47.48;99858.31;4996455;28;1058;-45
2023/03/10 11:55:28;;;;;;;;;;;;;;;17.36;47.73;99853.91;5011731;28;1036;-49
2023/03/10 11:57:54;;;;;;;;;;;;;;;16.77;47.75;99850.66;5011187;28;1255;-47
2023/03/10 12:00:24;;;;;;;;;;;;;;;17.94;47.20;99849.03;5017225;28;1246;-47
2023/03/10 12:03:08;;;;;;;;;;;;;;;17.20;47.91;99844.28;5000518;28;1160;-48
2023/03/10 12:05:47;;;;;;;;;;;;;;;16.86;47.30;99831.63;5000543;28;1135;-46
2023/03/10 12:08:13;;;;;;;;;;;;;;;16.72;46.61;99826.06;5016230;28;1903;-46
2023/03/10 12:10:39;;;;;;;;;;;;;;;17.56;47.47;99827.97;5015329;28;1055;-50
2023/03/10 12:13:04;;;;;;;;;;;;;;;16.94;47.82;99819.97;5014966;28;1516;-49
2023/03/10 12:15:34;;;;;;;;;;;;;;;16.73;47.18;99814.78;5015364;28;1187;-51
2023/03/10 12:18:00;;;;;;;;;;;;;;;17.90;47.11;99825.97;5000563;28;1037;-44
2023/03/10 12:20:27;;;;;;;;;;;;;;;17.12;47.67;99812.00;5015488;28;1448;-50
2023/03/10 12:22:53;;;;;;;;;;;;;;;16.77;47.43;99802.09;5000007;28;1037;-48
2023/03/10 12:25:28;;;;;;;;;;;;;;;17.89;47.15;99805.06;5015257;28;896;-52
2023/03/10 12:28:12;;;;;;;;;;;;;;;17.03;48.11;99789.91;4999889;28;1120;-45
2023/03/10 12:30:55;;;;;;;;;;;;;;;16.89;47.20;99795.34;5000034;28;1337;-48
2023/03/10 12:33:33;;;;;;;;;;;;;;;17.80;47.42;99785.72;5000200;28;1004;-48
2023/03/10 12:36:08;;;;;;;;;;;;;;;17.12;47.81;99787.28;4999749;28;1207;-47
2023/03/10 12:38:44;;;;;;;;;;;;;;;16.84;47.36;99787.97;5015029;28;1206;-49
2023/03/10 12:41:10;;;;;;;;;;;;;;;17.19;47.86;99776.72;4987484;28;1101;-49
2023/03/10 12:43:36;;;;;;;;;;;;;;;17.07;47.79;99783.50;4999335;28;1080;-47
2023/03/10 12:46:02;;;;;;;;;;;;;;;17.72;47.43;99792.75;4999697;28;1032;-50
2023/03/10 12:48:27;;;;;;;;;;;;;;;18.55;46.30;99791.84;5014309;28;1975;-48
2023/03/10 12:50:54;;;;;;;;;;;;;;;17.37;48.33;99778.56;5014980;28;1056;-52
2023/03/10 12:53:32;;;;;;;;;;;;;;;17.10;47.83;99762.84;5014528;28;1071;-52